sensor_id;sensor_type;location;lat;lon;timestamp;P1;durP1;ratioP1;P2;durP2;ratioP2
46651;SDS011;32377;52.182;5.398;2024-03-23T00:53:07;43.15;;;15.38;;
46651;SDS011;32377;52.182;5.398;2024-03-23T00:55:33;55.38;;;14.93;;
46651;SDS011;32377;52.182;5.398;2024-03-23T00:57:58;46.13;;;12.35;;
46651;SDS011;32377;52.182;5.398;2024-03-23T01:00:24;47.63;;;14.05;;
46651;SDS011;32377;52.182;5.398;2024-03-23T01:02:49;42.38;;;13.35;;
46651;SDS011;32377;52.182;5.398;2024-03-23T01:05:15;44.38;;;13.80;;
46651;SDS011;32377;52.182;5.398;2024-03-23T01:07:41;43.00;;;12.82;;
46651;SDS011;32377;52.182;5.398;2024-03-23T01:10:06;51.13;;;14.13;;
46651;SDS011;32377;52.182;5.398;2024-03-23T01:12:32;48.22;;;13.57;;
46651;SDS011;32377;52.182;5.398;2024-03-23T01:14:57;51.55;;;12.80;;
46651;SDS011;32377;52.182;5.398;2024-03-23T01:17:23;51.45;;;13.65;;
46651;SDS011;32377;52.182;5.398;2024-03-23T01:19:49;46.35;;;12.50;;
46651;SDS011;32377;52.182;5.398;2024-03-23T01:22:14;48.95;;;13.05;;
46651;SDS011;32377;52.182;5.398;2024-03-23T01:24:40;35.72;;;12.27;;
46651;SDS011;32377;52.182;5.398;2024-03-23T01:27:05;42.70;;;14.15;;
46651;SDS011;32377;52.182;5.398;2024-03-23T01:29:31;41.08;;;12.57;;
46651;SDS011;32377;52.182;5.398;2024-03-23T01:31:56;43.08;;;12.65;;
46651;SDS011;32377;52.182;5.398;2024-03-23T01:34:22;38.33;;;12.43;;
46651;SDS011;32377;52.182;5.398;2024-03-23T01:36:49;43.90;;;12.65;;
46651;SDS011;32377;52.182;5.398;2024-03-23T01:39:15;45.35;;;13.85;;
46651;SDS011;32377;52.182;5.398;2024-03-23T01:41:41;49.58;;;14.75;;
46651;SDS011;32377;52.182;5.398;2024-03-23T01:44:08;38.63;;;12.45;;
46651;SDS011;32377;52.182;5.398;2024-03-23T01:46:37;46.55;;;13.73;;
46651;SDS011;32377;52.182;5.398;2024-03-23T01:49:06;44.92;;;13.63;;
46651;SDS011;32377;52.182;5.398;2024-03-23T01:51:33;36.58;;;13.30;;
46651;SDS011;32377;52.182;5.398;2024-03-23T01:53:59;44.50;;;12.77;;
46651;SDS011;32377;52.182;5.398;2024-03-23T01:56:30;44.95;;;12.88;;
46651;SDS011;32377;52.182;5.398;2024-03-23T01:59:03;41.33;;;13.35;;
46651;SDS011;32377;52.182;5.398;2024-03-23T02:01:30;45.42;;;13.95;;
46651;SDS011;32377;52.182;5.398;2024-03-23T02:03:57;39.45;;;12.70;;
46651;SDS011;32377;52.182;5.398;2024-03-23T02:06:26;49.10;;;13.15;;
46651;SDS011;32377;52.182;5.398;2024-03-23T02:08:52;62.78;;;14.13;;
46651;SDS011;32377;52.182;5.398;2024-03-23T02:11:19;47.95;;;14.65;;
46651;SDS011;32377;52.182;5.398;2024-03-23T02:13:45;51.47;;;14.25;;
46651;SDS011;32377;52.182;5.398;2024-03-23T02:16:10;42.47;;;12.38;;
46651;SDS011;32377;52.182;5.398;2024-03-23T02:18:36;45.33;;;13.13;;
46651;SDS011;32377;52.182;5.398;2024-03-23T02:21:02;46.13;;;12.68;;
46651;SDS011;32377;52.182;5.398;2024-03-23T02:23:28;50.45;;;13.70;;
46651;SDS011;32377;52.182;5.398;2024-03-23T02:25:54;40.47;;;11.50;;
46651;SDS011;32377;52.182;5.398;2024-03-23T02:28:19;43.33;;;12.73;;
46651;SDS011;32377;52.182;5.398;2024-03-23T02:30:45;52.25;;;14.60;;
46651;SDS011;32377;52.182;5.398;2024-03-23T02:33:11;45.58;;;12.13;;
46651;SDS011;32377;52.182;5.398;2024-03-23T02:35:37;43.38;;;12.40;;
46651;SDS011;32377;52.182;5.398;2024-03-23T02:38:02;48.83;;;11.75;;
46651;SDS011;32377;52.182;5.398;2024-03-23T02:40:28;41.03;;;10.95;;
46651;SDS011;32377;52.182;5.398;2024-03-23T02:42:54;50.10;;;12.30;;
46651;SDS011;32377;52.182;5.398;2024-03-23T02:45:20;54.38;;;11.85;;
46651;SDS011;32377;52.182;5.398;2024-03-23T02:47:45;37.53;;;11.10;;
46651;SDS011;32377;52.182;5.398;2024-03-23T02:50:11;32.47;;;9.88;;
46651;SDS011;32377;52.182;5.398;2024-03-23T02:52:37;33.65;;;11.85;;
46651;SDS011;32377;52.182;5.398;2024-03-23T02:55:03;50.70;;;11.43;;
46651;SDS011;32377;52.182;5.398;2024-03-23T02:57:29;36.20;;;10.30;;
46651;SDS011;32377;52.182;5.398;2024-03-23T02:59:55;35.90;;;10.88;;
46651;SDS011;32377;52.182;5.398;2024-03-23T03:02:20;33.95;;;10.45;;
46651;SDS011;32377;52.182;5.398;2024-03-23T03:04:46;44.53;;;9.45;;
46651;SDS011;32377;52.182;5.398;2024-03-23T03:07:12;35.65;;;11.20;;
46651;SDS011;32377;52.182;5.398;2024-03-23T03:09:38;33.58;;;8.88;;
46651;SDS011;32377;52.182;5.398;2024-03-23T03:12:05;42.70;;;10.98;;
46651;SDS011;32377;52.182;5.398;2024-03-23T03:14:31;40.88;;;9.98;;
46651;SDS011;32377;52.182;5.398;2024-03-23T03:16:56;32.50;;;8.60;;
46651;SDS011;32377;52.182;5.398;2024-03-23T03:19:22;40.83;;;10.57;;
46651;SDS011;32377;52.182;5.398;2024-03-23T03:21:47;42.08;;;10.35;;
46651;SDS011;32377;52.182;5.398;2024-03-23T03:24:13;36.72;;;9.23;;
46651;SDS011;32377;52.182;5.398;2024-03-23T03:26:39;32.58;;;9.15;;
46651;SDS011;32377;52.182;5.398;2024-03-23T03:29:04;36.08;;;8.32;;
46651;SDS011;32377;52.182;5.398;2024-03-23T03:31:30;43.97;;;9.27;;
46651;SDS011;32377;52.182;5.398;2024-03-23T03:33:56;32.78;;;7.75;;
46651;SDS011;32377;52.182;5.398;2024-03-23T03:36:21;36.92;;;8.23;;
46651;SDS011;32377;52.182;5.398;2024-03-23T03:38:47;30.17;;;8.38;;
46651;SDS011;32377;52.182;5.398;2024-03-23T03:41:13;33.33;;;8.48;;
46651;SDS011;32377;52.182;5.398;2024-03-23T03:43:38;29.98;;;6.90;;
46651;SDS011;32377;52.182;5.398;2024-03-23T03:46:04;28.65;;;7.10;;
46651;SDS011;32377;52.182;5.398;2024-03-23T03:48:30;27.95;;;6.78;;
46651;SDS011;32377;52.182;5.398;2024-03-23T03:50:55;35.95;;;7.65;;
46651;SDS011;32377;52.182;5.398;2024-03-23T03:53:21;34.88;;;7.47;;
46651;SDS011;32377;52.182;5.398;2024-03-23T03:55:46;28.00;;;6.60;;
46651;SDS011;32377;52.182;5.398;2024-03-23T03:58:12;33.05;;;7.05;;
46651;SDS011;32377;52.182;5.398;2024-03-23T04:00:37;29.98;;;6.90;;
46651;SDS011;32377;52.182;5.398;2024-03-23T04:03:03;28.42;;;6.50;;
46651;SDS011;32377;52.182;5.398;2024-03-23T04:05:29;24.95;;;5.63;;
46651;SDS011;32377;52.182;5.398;2024-03-23T04:07:54;31.40;;;5.75;;
46651;SDS011;32377;52.182;5.398;2024-03-23T04:10:20;29.38;;;6.38;;
46651;SDS011;32377;52.182;5.398;2024-03-23T04:12:46;28.80;;;6.40;;
46651;SDS011;32377;52.182;5.398;2024-03-23T04:15:12;27.77;;;6.05;;
46651;SDS011;32377;52.182;5.398;2024-03-23T04:17:38;23.83;;;5.65;;
46651;SDS011;32377;52.182;5.398;2024-03-23T04:20:04;25.00;;;5.50;;
46651;SDS011;32377;52.182;5.398;2024-03-23T04:22:34;24.90;;;6.10;;
46651;SDS011;32377;52.182;5.398;2024-03-23T04:25:00;26.98;;;5.55;;
46651;SDS011;32377;52.182;5.398;2024-03-23T04:27:31;22.50;;;4.75;;
46651;SDS011;32377;52.182;5.398;2024-03-23T04:30:00;17.85;;;4.95;;
46651;SDS011;32377;52.182;5.398;2024-03-23T04:32:26;35.17;;;6.07;;
46651;SDS011;32377;52.182;5.398;2024-03-23T04:34:53;24.55;;;5.43;;
46651;SDS011;32377;52.182;5.398;2024-03-23T04:37:19;27.08;;;6.30;;
46651;SDS011;32377;52.182;5.398;2024-03-23T04:39:45;31.80;;;5.43;;
46651;SDS011;32377;52.182;5.398;2024-03-23T04:42:11;26.83;;;5.25;;
46651;SDS011;32377;52.182;5.398;2024-03-23T04:44:40;23.05;;;4.78;;
46651;SDS011;32377;52.182;5.398;2024-03-23T04:47:05;24.05;;;6.47;;
46651;SDS011;32377;52.182;5.398;2024-03-23T04:49:31;20.02;;;5.50;;
46651;SDS011;32377;52.182;5.398;2024-03-23T04:51:56;22.33;;;5.35;;
46651;SDS011;32377;52.182;5.398;2024-03-23T04:54:22;21.40;;;4.85;;
46651;SDS011;32377;52.182;5.398;2024-03-23T04:58:51;26.55;;;6.13;;
46651;SDS011;32377;52.182;5.398;2024-03-23T05:01:17;26.13;;;5.28;;
46651;SDS011;32377;52.182;5.398;2024-03-23T05:03:43;26.48;;;5.22;;
46651;SDS011;32377;52.182;5.398;2024-03-23T05:06:09;24.65;;;5.45;;
46651;SDS011;32377;52.182;5.398;2024-03-23T05:08:34;32.38;;;4.78;;
46651;SDS011;32377;52.182;5.398;2024-03-23T05:11:00;22.67;;;5.30;;
46651;SDS011;32377;52.182;5.398;2024-03-23T05:13:25;25.90;;;5.13;;
46651;SDS011;32377;52.182;5.398;2024-03-23T05:15:54;25.00;;;6.53;;
46651;SDS011;32377;52.182;5.398;2024-03-23T05:18:20;26.42;;;4.95;;
46651;SDS011;32377;52.182;5.398;2024-03-23T05:20:46;24.00;;;5.43;;
46651;SDS011;32377;52.182;5.398;2024-03-23T05:23:12;22.77;;;5.05;;
46651;SDS011;32377;52.182;5.398;2024-03-23T05:25:37;19.38;;;4.65;;
46651;SDS011;32377;52.182;5.398;2024-03-23T05:28:03;23.27;;;4.90;;
46651;SDS011;32377;52.182;5.398;2024-03-23T05:30:29;25.35;;;4.82;;
46651;SDS011;32377;52.182;5.398;2024-03-23T05:32:54;20.42;;;5.10;;
46651;SDS011;32377;52.182;5.398;2024-03-23T05:35:20;27.25;;;4.45;;
46651;SDS011;32377;52.182;5.398;2024-03-23T05:37:45;22.02;;;5.10;;
46651;SDS011;32377;52.182;5.398;2024-03-23T05:40:11;20.65;;;4.88;;
46651;SDS011;32377;52.182;5.398;2024-03-23T05:42:39;17.83;;;4.03;;
46651;SDS011;32377;52.182;5.398;2024-03-23T05:45:04;20.00;;;4.30;;
46651;SDS011;32377;52.182;5.398;2024-03-23T05:47:31;23.15;;;3.75;;
46651;SDS011;32377;52.182;5.398;2024-03-23T05:49:57;16.30;;;4.00;;
46651;SDS011;32377;52.182;5.398;2024-03-23T05:52:23;21.58;;;4.47;;
46651;SDS011;32377;52.182;5.398;2024-03-23T05:54:50;18.45;;;3.58;;
46651;SDS011;32377;52.182;5.398;2024-03-23T05:57:16;26.20;;;4.80;;
46651;SDS011;32377;52.182;5.398;2024-03-23T05:59:44;24.25;;;5.43;;
46651;SDS011;32377;52.182;5.398;2024-03-23T06:02:09;17.33;;;3.88;;
46651;SDS011;32377;52.182;5.398;2024-03-23T06:04:35;24.20;;;4.53;;
46651;SDS011;32377;52.182;5.398;2024-03-23T06:07:01;26.40;;;3.92;;
46651;SDS011;32377;52.182;5.398;2024-03-23T06:09:26;16.13;;;3.58;;
46651;SDS011;32377;52.182;5.398;2024-03-23T06:11:52;16.98;;;3.45;;
46651;SDS011;32377;52.182;5.398;2024-03-23T06:14:18;21.55;;;3.95;;
46651;SDS011;32377;52.182;5.398;2024-03-23T06:16:43;17.73;;;3.42;;
46651;SDS011;32377;52.182;5.398;2024-03-23T06:19:09;22.98;;;4.05;;
46651;SDS011;32377;52.182;5.398;2024-03-23T06:21:34;15.55;;;3.28;;
46651;SDS011;32377;52.182;5.398;2024-03-23T06:24:00;12.57;;;3.10;;
46651;SDS011;32377;52.182;5.398;2024-03-23T06:26:26;18.63;;;4.00;;
46651;SDS011;32377;52.182;5.398;2024-03-23T06:28:51;21.02;;;2.88;;
46651;SDS011;32377;52.182;5.398;2024-03-23T06:31:17;18.30;;;3.83;;
46651;SDS011;32377;52.182;5.398;2024-03-23T06:33:43;20.40;;;4.32;;
46651;SDS011;32377;52.182;5.398;2024-03-23T06:36:09;16.13;;;3.47;;
46651;SDS011;32377;52.182;5.398;2024-03-23T06:38:35;19.45;;;3.25;;
46651;SDS011;32377;52.182;5.398;2024-03-23T06:41:02;19.50;;;3.63;;
46651;SDS011;32377;52.182;5.398;2024-03-23T06:43:28;14.63;;;3.50;;
46651;SDS011;32377;52.182;5.398;2024-03-23T06:45:54;18.92;;;3.33;;
46651;SDS011;32377;52.182;5.398;2024-03-23T06:48:20;21.40;;;3.88;;
46651;SDS011;32377;52.182;5.398;2024-03-23T06:50:46;19.88;;;3.35;;
46651;SDS011;32377;52.182;5.398;2024-03-23T06:53:12;18.38;;;3.72;;
46651;SDS011;32377;52.182;5.398;2024-03-23T06:55:38;20.30;;;4.30;;
46651;SDS011;32377;52.182;5.398;2024-03-23T06:58:03;16.98;;;3.95;;
46651;SDS011;32377;52.182;5.398;2024-03-23T07:00:29;12.13;;;3.50;;
46651;SDS011;32377;52.182;5.398;2024-03-23T07:02:55;20.15;;;4.47;;
46651;SDS011;32377;52.182;5.398;2024-03-23T07:05:21;17.95;;;4.45;;
46651;SDS011;32377;52.182;5.398;2024-03-23T07:07:46;22.23;;;4.60;;
46651;SDS011;32377;52.182;5.398;2024-03-23T07:10:12;21.13;;;4.53;;
46651;SDS011;32377;52.182;5.398;2024-03-23T07:12:38;21.15;;;4.75;;
46651;SDS011;32377;52.182;5.398;2024-03-23T07:15:03;18.75;;;4.70;;
46651;SDS011;32377;52.182;5.398;2024-03-23T07:17:29;16.63;;;5.32;;
46651;SDS011;32377;52.182;5.398;2024-03-23T07:19:55;17.92;;;3.97;;
46651;SDS011;32377;52.182;5.398;2024-03-23T07:22:21;17.90;;;5.40;;
46651;SDS011;32377;52.182;5.398;2024-03-23T07:24:46;18.42;;;5.47;;
46651;SDS011;32377;52.182;5.398;2024-03-23T07:27:12;27.15;;;6.88;;
46651;SDS011;32377;52.182;5.398;2024-03-23T07:29:37;21.17;;;5.30;;
46651;SDS011;32377;52.182;5.398;2024-03-23T07:32:03;27.27;;;5.07;;
46651;SDS011;32377;52.182;5.398;2024-03-23T07:34:29;19.02;;;4.90;;
46651;SDS011;32377;52.182;5.398;2024-03-23T07:36:55;17.10;;;5.55;;
46651;SDS011;32377;52.182;5.398;2024-03-23T07:39:20;20.58;;;4.78;;
46651;SDS011;32377;52.182;5.398;2024-03-23T07:41:46;16.45;;;4.40;;
46651;SDS011;32377;52.182;5.398;2024-03-23T07:44:11;19.52;;;4.25;;
46651;SDS011;32377;52.182;5.398;2024-03-23T07:46:37;20.05;;;4.93;;
46651;SDS011;32377;52.182;5.398;2024-03-23T07:49:06;25.55;;;5.10;;
46651;SDS011;32377;52.182;5.398;2024-03-23T07:51:31;23.67;;;5.03;;
46651;SDS011;32377;52.182;5.398;2024-03-23T07:53:58;16.75;;;4.25;;
46651;SDS011;32377;52.182;5.398;2024-03-23T07:56:24;28.05;;;5.22;;
46651;SDS011;32377;52.182;5.398;2024-03-23T07:58:50;18.92;;;4.97;;
46651;SDS011;32377;52.182;5.398;2024-03-23T08:01:16;14.90;;;3.88;;
46651;SDS011;32377;52.182;5.398;2024-03-23T08:03:43;18.40;;;3.90;;
46651;SDS011;32377;52.182;5.398;2024-03-23T08:06:10;20.02;;;3.65;;
46651;SDS011;32377;52.182;5.398;2024-03-23T08:08:41;16.98;;;3.58;;
46651;SDS011;32377;52.182;5.398;2024-03-23T08:11:08;21.38;;;3.80;;
46651;SDS011;32377;52.182;5.398;2024-03-23T08:13:34;16.40;;;3.70;;
46651;SDS011;32377;52.182;5.398;2024-03-23T08:16:01;12.38;;;2.97;;
46651;SDS011;32377;52.182;5.398;2024-03-23T08:18:28;17.73;;;3.38;;
46651;SDS011;32377;52.182;5.398;2024-03-23T08:21:00;13.90;;;2.83;;
46651;SDS011;32377;52.182;5.398;2024-03-23T08:23:28;18.95;;;2.88;;
46651;SDS011;32377;52.182;5.398;2024-03-23T08:25:58;19.60;;;3.83;;
46651;SDS011;32377;52.182;5.398;2024-03-23T08:28:24;16.10;;;3.13;;
46651;SDS011;32377;52.182;5.398;2024-03-23T08:30:50;20.15;;;3.53;;
46651;SDS011;32377;52.182;5.398;2024-03-23T08:33:17;11.48;;;2.70;;
46651;SDS011;32377;52.182;5.398;2024-03-23T08:35:42;13.43;;;3.67;;
46651;SDS011;32377;52.182;5.398;2024-03-23T08:38:17;24.20;;;4.25;;
46651;SDS011;32377;52.182;5.398;2024-03-23T08:40:43;11.88;;;2.97;;
46651;SDS011;32377;52.182;5.398;2024-03-23T08:43:08;14.45;;;2.38;;
46651;SDS011;32377;52.182;5.398;2024-03-23T08:45:34;14.98;;;2.60;;
46651;SDS011;32377;52.182;5.398;2024-03-23T08:47:59;14.65;;;2.60;;
46651;SDS011;32377;52.182;5.398;2024-03-23T08:50:25;13.82;;;3.13;;
46651;SDS011;32377;52.182;5.398;2024-03-23T08:52:50;19.92;;;2.88;;
46651;SDS011;32377;52.182;5.398;2024-03-23T08:55:16;21.42;;;3.05;;
46651;SDS011;32377;52.182;5.398;2024-03-23T08:57:42;8.98;;;1.80;;
46651;SDS011;32377;52.182;5.398;2024-03-23T09:00:07;14.30;;;2.92;;
46651;SDS011;32377;52.182;5.398;2024-03-23T09:02:33;13.20;;;2.65;;
46651;SDS011;32377;52.182;5.398;2024-03-23T09:04:59;20.20;;;2.53;;
46651;SDS011;32377;52.182;5.398;2024-03-23T09:07:29;8.85;;;1.70;;
46651;SDS011;32377;52.182;5.398;2024-03-23T09:09:55;7.75;;;2.40;;
46651;SDS011;32377;52.182;5.398;2024-03-23T09:12:21;8.80;;;1.83;;
46651;SDS011;32377;52.182;5.398;2024-03-23T09:14:47;14.57;;;2.10;;
46651;SDS011;32377;52.182;5.398;2024-03-23T09:17:12;6.32;;;1.40;;
46651;SDS011;32377;52.182;5.398;2024-03-23T09:19:38;10.02;;;1.98;;
46651;SDS011;32377;52.182;5.398;2024-03-23T09:22:04;10.70;;;2.00;;
46651;SDS011;32377;52.182;5.398;2024-03-23T09:24:30;10.80;;;2.10;;
46651;SDS011;32377;52.182;5.398;2024-03-23T09:26:57;12.70;;;2.22;;
46651;SDS011;32377;52.182;5.398;2024-03-23T09:29:22;11.18;;;2.70;;
46651;SDS011;32377;52.182;5.398;2024-03-23T09:31:48;15.05;;;2.40;;
46651;SDS011;32377;52.182;5.398;2024-03-23T09:34:14;17.90;;;4.28;;
46651;SDS011;32377;52.182;5.398;2024-03-23T09:36:40;10.27;;;2.17;;
46651;SDS011;32377;52.182;5.398;2024-03-23T09:39:06;12.57;;;2.42;;
46651;SDS011;32377;52.182;5.398;2024-03-23T09:41:34;12.30;;;2.53;;
46651;SDS011;32377;52.182;5.398;2024-03-23T09:44:00;11.50;;;2.30;;
46651;SDS011;32377;52.182;5.398;2024-03-23T09:46:26;9.80;;;1.90;;
46651;SDS011;32377;52.182;5.398;2024-03-23T09:48:53;20.25;;;2.65;;
46651;SDS011;32377;52.182;5.398;2024-03-23T09:51:20;12.30;;;2.60;;
46651;SDS011;32377;52.182;5.398;2024-03-23T09:53:47;11.10;;;2.33;;
46651;SDS011;32377;52.182;5.398;2024-03-23T09:56:15;13.75;;;2.72;;
46651;SDS011;32377;52.182;5.398;2024-03-23T09:58:42;18.15;;;2.97;;
46651;SDS011;32377;52.182;5.398;2024-03-23T10:01:07;15.75;;;2.80;;
46651;SDS011;32377;52.182;5.398;2024-03-23T10:03:44;15.40;;;2.78;;
46651;SDS011;32377;52.182;5.398;2024-03-23T10:06:10;15.05;;;3.22;;
46651;SDS011;32377;52.182;5.398;2024-03-23T10:08:36;16.80;;;3.45;;
46651;SDS011;32377;52.182;5.398;2024-03-23T10:11:12;12.93;;;2.75;;
46651;SDS011;32377;52.182;5.398;2024-03-23T10:13:42;16.10;;;2.60;;
46651;SDS011;32377;52.182;5.398;2024-03-23T10:16:08;16.98;;;3.22;;
46651;SDS011;32377;52.182;5.398;2024-03-23T10:18:37;16.73;;;2.70;;
46651;SDS011;32377;52.182;5.398;2024-03-23T10:21:10;10.15;;;2.40;;
46651;SDS011;32377;52.182;5.398;2024-03-23T10:23:39;15.23;;;2.58;;
46651;SDS011;32377;52.182;5.398;2024-03-23T10:31:21;18.00;;;3.08;;
46651;SDS011;32377;52.182;5.398;2024-03-23T10:33:47;10.45;;;2.22;;
46651;SDS011;32377;52.182;5.398;2024-03-23T10:36:13;13.23;;;2.58;;
46651;SDS011;32377;52.182;5.398;2024-03-23T10:38:43;12.65;;;2.58;;
46651;SDS011;32377;52.182;5.398;2024-03-23T10:41:10;12.30;;;2.45;;
46651;SDS011;32377;52.182;5.398;2024-03-23T10:43:36;12.32;;;2.50;;
46651;SDS011;32377;52.182;5.398;2024-03-23T10:46:02;10.50;;;2.30;;
46651;SDS011;32377;52.182;5.398;2024-03-23T10:48:29;10.38;;;2.40;;
46651;SDS011;32377;52.182;5.398;2024-03-23T10:50:54;12.38;;;2.85;;
46651;SDS011;32377;52.182;5.398;2024-03-23T10:53:25;10.95;;;2.75;;
46651;SDS011;32377;52.182;5.398;2024-03-23T10:58:55;13.98;;;2.88;;
46651;SDS011;32377;52.182;5.398;2024-03-23T11:01:21;13.57;;;2.70;;
46651;SDS011;32377;52.182;5.398;2024-03-23T11:03:47;20.95;;;2.70;;
46651;SDS011;32377;52.182;5.398;2024-03-23T11:09:03;11.50;;;2.08;;
46651;SDS011;32377;52.182;5.398;2024-03-23T11:11:29;12.02;;;2.08;;
46651;SDS011;32377;52.182;5.398;2024-03-23T11:13:57;13.27;;;2.45;;
46651;SDS011;32377;52.182;5.398;2024-03-23T11:16:25;10.20;;;1.90;;
46651;SDS011;32377;52.182;5.398;2024-03-23T11:22:03;12.07;;;2.22;;
46651;SDS011;32377;52.182;5.398;2024-03-23T11:24:30;17.17;;;3.25;;
46651;SDS011;32377;52.182;5.398;2024-03-23T11:26:56;16.15;;;3.65;;
46651;SDS011;32377;52.182;5.398;2024-03-23T11:29:25;8.63;;;1.98;;
46651;SDS011;32377;52.182;5.398;2024-03-23T11:31:51;7.85;;;2.15;;
46651;SDS011;32377;52.182;5.398;2024-03-23T11:34:19;16.00;;;2.58;;
46651;SDS011;32377;52.182;5.398;2024-03-23T11:36:45;11.13;;;2.70;;
46651;SDS011;32377;52.182;5.398;2024-03-23T11:39:14;17.30;;;2.15;;
46651;SDS011;32377;52.182;5.398;2024-03-23T11:41:55;12.60;;;1.83;;
46651;SDS011;32377;52.182;5.398;2024-03-23T11:44:22;10.73;;;2.20;;
46651;SDS011;32377;52.182;5.398;2024-03-23T11:46:49;12.95;;;2.20;;
46651;SDS011;32377;52.182;5.398;2024-03-23T11:49:27;18.65;;;3.50;;
46651;SDS011;32377;52.182;5.398;2024-03-23T11:51:54;12.80;;;2.42;;
46651;SDS011;32377;52.182;5.398;2024-03-23T11:54:21;17.65;;;3.05;;
46651;SDS011;32377;52.182;5.398;2024-03-23T11:56:56;18.95;;;2.75;;
46651;SDS011;32377;52.182;5.398;2024-03-23T11:59:36;15.57;;;2.60;;
46651;SDS011;32377;52.182;5.398;2024-03-23T12:02:07;16.60;;;3.35;;
46651;SDS011;32377;52.182;5.398;2024-03-23T12:04:33;15.75;;;2.20;;
46651;SDS011;32377;52.182;5.398;2024-03-23T12:09:35;11.00;;;2.13;;
46651;SDS011;32377;52.182;5.398;2024-03-23T12:12:05;19.20;;;3.00;;
46651;SDS011;32377;52.182;5.398;2024-03-23T12:14:35;9.90;;;2.22;;
46651;SDS011;32377;52.182;5.398;2024-03-23T12:17:34;13.30;;;2.83;;
46651;SDS011;32377;52.182;5.398;2024-03-23T12:19:53;13.45;;;2.80;;
46651;SDS011;32377;52.182;5.398;2024-03-23T12:22:22;13.85;;;2.53;;
46651;SDS011;32377;52.182;5.398;2024-03-23T12:24:49;10.30;;;2.20;;
46651;SDS011;32377;52.182;5.398;2024-03-23T12:27:14;13.23;;;2.35;;
46651;SDS011;32377;52.182;5.398;2024-03-23T12:29:40;13.57;;;2.10;;
46651;SDS011;32377;52.182;5.398;2024-03-23T12:32:11;11.55;;;2.50;;
46651;SDS011;32377;52.182;5.398;2024-03-23T12:34:37;15.38;;;2.60;;
46651;SDS011;32377;52.182;5.398;2024-03-23T12:37:02;12.60;;;2.22;;
46651;SDS011;32377;52.182;5.398;2024-03-23T12:39:28;10.00;;;1.88;;
46651;SDS011;32377;52.182;5.398;2024-03-23T12:41:54;12.07;;;2.05;;
46651;SDS011;32377;52.182;5.398;2024-03-23T12:44:20;10.98;;;2.10;;
46651;SDS011;32377;52.182;5.398;2024-03-23T12:46:46;13.60;;;2.17;;
46651;SDS011;32377;52.182;5.398;2024-03-23T12:49:11;9.90;;;2.63;;
46651;SDS011;32377;52.182;5.398;2024-03-23T12:51:37;10.30;;;2.10;;
46651;SDS011;32377;52.182;5.398;2024-03-23T12:54:03;12.90;;;2.45;;
46651;SDS011;32377;52.182;5.398;2024-03-23T12:56:29;17.15;;;2.30;;
46651;SDS011;32377;52.182;5.398;2024-03-23T12:58:55;11.50;;;2.25;;
46651;SDS011;32377;52.182;5.398;2024-03-23T13:01:25;16.80;;;2.50;;
46651;SDS011;32377;52.182;5.398;2024-03-23T13:03:51;17.25;;;2.08;;
46651;SDS011;32377;52.182;5.398;2024-03-23T13:06:16;9.80;;;1.83;;
46651;SDS011;32377;52.182;5.398;2024-03-23T13:08:46;10.68;;;2.00;;
46651;SDS011;32377;52.182;5.398;2024-03-23T13:11:12;12.55;;;2.08;;
46651;SDS011;32377;52.182;5.398;2024-03-23T13:13:39;11.80;;;2.50;;
46651;SDS011;32377;52.182;5.398;2024-03-23T13:16:05;11.45;;;2.05;;
46651;SDS011;32377;52.182;5.398;2024-03-23T13:18:31;10.48;;;1.48;;
46651;SDS011;32377;52.182;5.398;2024-03-23T13:20:57;11.15;;;1.60;;
46651;SDS011;32377;52.182;5.398;2024-03-23T13:23:23;13.75;;;2.65;;
46651;SDS011;32377;52.182;5.398;2024-03-23T13:25:49;18.38;;;2.22;;
46651;SDS011;32377;52.182;5.398;2024-03-23T13:28:19;9.15;;;2.00;;
46651;SDS011;32377;52.182;5.398;2024-03-23T13:33:20;4.15;;;2.03;;
46651;SDS011;32377;52.182;5.398;2024-03-23T13:35:53;7.03;;;1.17;;
46651;SDS011;32377;52.182;5.398;2024-03-23T13:38:20;5.32;;;0.82;;
46651;SDS011;32377;52.182;5.398;2024-03-23T13:40:50;6.07;;;1.23;;
46651;SDS011;32377;52.182;5.398;2024-03-23T13:43:19;4.88;;;1.35;;
46651;SDS011;32377;52.182;5.398;2024-03-23T13:45:46;6.50;;;1.42;;
46651;SDS011;32377;52.182;5.398;2024-03-23T13:48:13;6.72;;;1.50;;
46651;SDS011;32377;52.182;5.398;2024-03-23T13:50:39;7.55;;;1.50;;
46651;SDS011;32377;52.182;5.398;2024-03-23T13:53:05;9.82;;;1.58;;
46651;SDS011;32377;52.182;5.398;2024-03-23T13:55:31;11.70;;;2.20;;
46651;SDS011;32377;52.182;5.398;2024-03-23T13:57:57;6.72;;;1.33;;
46651;SDS011;32377;52.182;5.398;2024-03-23T14:00:23;9.45;;;2.00;;
46651;SDS011;32377;52.182;5.398;2024-03-23T14:02:48;7.78;;;1.90;;
46651;SDS011;32377;52.182;5.398;2024-03-23T14:05:14;11.27;;;2.20;;
46651;SDS011;32377;52.182;5.398;2024-03-23T14:07:39;12.95;;;2.28;;
46651;SDS011;32377;52.182;5.398;2024-03-23T14:10:05;14.35;;;2.10;;
46651;SDS011;32377;52.182;5.398;2024-03-23T14:12:31;13.77;;;2.28;;
46651;SDS011;32377;52.182;5.398;2024-03-23T14:14:57;15.35;;;2.17;;
46651;SDS011;32377;52.182;5.398;2024-03-23T14:17:23;12.93;;;2.47;;
46651;SDS011;32377;52.182;5.398;2024-03-23T14:19:48;10.63;;;1.98;;
46651;SDS011;32377;52.182;5.398;2024-03-23T14:22:15;14.90;;;2.25;;
46651;SDS011;32377;52.182;5.398;2024-03-23T14:24:44;10.48;;;2.38;;
46651;SDS011;32377;52.182;5.398;2024-03-23T14:27:10;14.15;;;2.50;;
46651;SDS011;32377;52.182;5.398;2024-03-23T14:29:35;10.10;;;2.63;;
46651;SDS011;32377;52.182;5.398;2024-03-23T14:32:01;12.40;;;1.95;;
46651;SDS011;32377;52.182;5.398;2024-03-23T14:34:27;12.40;;;2.13;;
46651;SDS011;32377;52.182;5.398;2024-03-23T14:36:55;15.23;;;2.10;;
46651;SDS011;32377;52.182;5.398;2024-03-23T14:39:26;15.55;;;2.47;;
46651;SDS011;32377;52.182;5.398;2024-03-23T14:41:52;8.07;;;2.20;;
46651;SDS011;32377;52.182;5.398;2024-03-23T14:44:17;10.10;;;2.08;;
46651;SDS011;32377;52.182;5.398;2024-03-23T14:46:43;9.75;;;2.30;;
46651;SDS011;32377;52.182;5.398;2024-03-23T14:49:14;11.68;;;2.65;;
46651;SDS011;32377;52.182;5.398;2024-03-23T14:51:41;10.55;;;1.92;;
46651;SDS011;32377;52.182;5.398;2024-03-23T14:54:07;11.27;;;2.10;;
46651;SDS011;32377;52.182;5.398;2024-03-23T14:56:33;11.63;;;2.03;;
46651;SDS011;32377;52.182;5.398;2024-03-23T14:58:59;10.65;;;2.50;;
46651;SDS011;32377;52.182;5.398;2024-03-23T15:01:25;6.40;;;1.38;;
46651;SDS011;32377;52.182;5.398;2024-03-23T15:03:51;14.20;;;2.20;;
46651;SDS011;32377;52.182;5.398;2024-03-23T15:06:18;17.48;;;2.90;;
46651;SDS011;32377;52.182;5.398;2024-03-23T15:08:44;13.43;;;2.45;;
46651;SDS011;32377;52.182;5.398;2024-03-23T15:11:10;14.02;;;2.20;;
46651;SDS011;32377;52.182;5.398;2024-03-23T15:13:35;13.93;;;2.17;;
46651;SDS011;32377;52.182;5.398;2024-03-23T15:16:02;11.82;;;2.20;;
46651;SDS011;32377;52.182;5.398;2024-03-23T15:18:28;9.90;;;2.22;;
46651;SDS011;32377;52.182;5.398;2024-03-23T15:20:55;12.88;;;2.60;;
46651;SDS011;32377;52.182;5.398;2024-03-23T15:23:22;7.20;;;1.65;;
46651;SDS011;32377;52.182;5.398;2024-03-23T15:26:00;7.25;;;2.20;;
46651;SDS011;32377;52.182;5.398;2024-03-23T15:28:27;10.25;;;1.92;;
46651;SDS011;32377;52.182;5.398;2024-03-23T15:31:03;19.08;;;2.67;;
46651;SDS011;32377;52.182;5.398;2024-03-23T15:33:35;13.35;;;2.97;;
46651;SDS011;32377;52.182;5.398;2024-03-23T15:36:07;11.48;;;2.13;;
46651;SDS011;32377;52.182;5.398;2024-03-23T15:38:32;11.18;;;2.20;;
46651;SDS011;32377;52.182;5.398;2024-03-23T15:40:58;13.40;;;1.50;;
46651;SDS011;32377;52.182;5.398;2024-03-23T15:43:24;14.05;;;2.35;;